sensor_id;sensor_type;location;lat;lon;timestamp;P1;durP1;ratioP1;P2;durP2;ratioP2
19207;SDS011;9737;59.466;18.036;2024-03-25T00:01:03;5.95;;;3.63;;
19207;SDS011;9737;59.466;18.036;2024-03-25T00:03:31;10.77;;;3.88;;
19207;SDS011;9737;59.466;18.036;2024-03-25T00:05:58;6.05;;;3.60;;
19207;SDS011;9737;59.466;18.036;2024-03-25T00:08:24;4.85;;;3.50;;
19207;SDS011;9737;59.466;18.036;2024-03-25T00:10:51;6.13;;;3.50;;
19207;SDS011;9737;59.466;18.036;2024-03-25T00:13:17;5.82;;;3.70;;
19207;SDS011;9737;59.466;18.036;2024-03-25T00:15:43;7.55;;;3.47;;
19207;SDS011;9737;59.466;18.036;2024-03-25T00:18:09;6.13;;;3.63;;
19207;SDS011;9737;59.466;18.036;2024-03-25T00:20:37;8.20;;;3.95;;
19207;SDS011;9737;59.466;18.036;2024-03-25T00:23:03;6.40;;;3.97;;
19207;SDS011;9737;59.466;18.036;2024-03-25T00:25:29;6.35;;;3.65;;
19207;SDS011;9737;59.466;18.036;2024-03-25T00:27:56;6.10;;;3.53;;
19207;SDS011;9737;59.466;18.036;2024-03-25T00:30:22;7.63;;;3.90;;
19207;SDS011;9737;59.466;18.036;2024-03-25T00:32:50;7.85;;;3.50;;
19207;SDS011;9737;59.466;18.036;2024-03-25T00:35:17;5.57;;;3.53;;
19207;SDS011;9737;59.466;18.036;2024-03-25T00:37:45;9.90;;;4.22;;
19207;SDS011;9737;59.466;18.036;2024-03-25T00:40:11;5.72;;;3.70;;
19207;SDS011;9737;59.466;18.036;2024-03-25T00:42:37;6.53;;;3.88;;
19207;SDS011;9737;59.466;18.036;2024-03-25T00:45:04;8.27;;;3.97;;
19207;SDS011;9737;59.466;18.036;2024-03-25T00:47:31;5.72;;;3.78;;
19207;SDS011;9737;59.466;18.036;2024-03-25T00:49:59;4.68;;;3.90;;
19207;SDS011;9737;59.466;18.036;2024-03-25T00:52:25;5.57;;;3.60;;
19207;SDS011;9737;59.466;18.036;2024-03-25T00:54:55;5.90;;;3.60;;
19207;SDS011;9737;59.466;18.036;2024-03-25T00:57:22;8.68;;;4.07;;
19207;SDS011;9737;59.466;18.036;2024-03-25T00:59:48;5.90;;;3.60;;
19207;SDS011;9737;59.466;18.036;2024-03-25T01:02:14;5.95;;;3.65;;
19207;SDS011;9737;59.466;18.036;2024-03-25T01:04:41;8.35;;;3.63;;
19207;SDS011;9737;59.466;18.036;2024-03-25T01:07:07;11.95;;;4.18;;
19207;SDS011;9737;59.466;18.036;2024-03-25T01:09:33;4.75;;;3.65;;
19207;SDS011;9737;59.466;18.036;2024-03-25T01:12:01;6.47;;;3.88;;
19207;SDS011;9737;59.466;18.036;2024-03-25T01:14:27;7.05;;;4.50;;
19207;SDS011;9737;59.466;18.036;2024-03-25T01:16:53;5.88;;;3.70;;
19207;SDS011;9737;59.466;18.036;2024-03-25T01:19:19;5.32;;;3.75;;
19207;SDS011;9737;59.466;18.036;2024-03-25T01:21:46;5.32;;;3.70;;
19207;SDS011;9737;59.466;18.036;2024-03-25T01:24:13;6.22;;;3.80;;
19207;SDS011;9737;59.466;18.036;2024-03-25T01:26:39;6.40;;;3.88;;
19207;SDS011;9737;59.466;18.036;2024-03-25T01:29:07;5.43;;;3.75;;
19207;SDS011;9737;59.466;18.036;2024-03-25T01:31:36;6.50;;;3.85;;
19207;SDS011;9737;59.466;18.036;2024-03-25T01:34:02;9.30;;;3.72;;
19207;SDS011;9737;59.466;18.036;2024-03-25T01:36:32;8.23;;;3.67;;
19207;SDS011;9737;59.466;18.036;2024-03-25T01:38:59;10.05;;;4.07;;
19207;SDS011;9737;59.466;18.036;2024-03-25T01:41:25;4.40;;;3.53;;
19207;SDS011;9737;59.466;18.036;2024-03-25T01:43:51;6.20;;;3.85;;
19207;SDS011;9737;59.466;18.036;2024-03-25T01:46:19;5.60;;;3.58;;
19207;SDS011;9737;59.466;18.036;2024-03-25T01:48:49;9.00;;;3.63;;
19207;SDS011;9737;59.466;18.036;2024-03-25T01:51:17;5.93;;;3.63;;
19207;SDS011;9737;59.466;18.036;2024-03-25T01:53:44;7.53;;;3.97;;
19207;SDS011;9737;59.466;18.036;2024-03-25T01:56:12;6.00;;;3.90;;
19207;SDS011;9737;59.466;18.036;2024-03-25T01:58:40;5.28;;;3.63;;
19207;SDS011;9737;59.466;18.036;2024-03-25T02:01:06;4.43;;;3.50;;
19207;SDS011;9737;59.466;18.036;2024-03-25T02:03:34;6.82;;;3.80;;
19207;SDS011;9737;59.466;18.036;2024-03-25T02:06:02;5.68;;;3.33;;
19207;SDS011;9737;59.466;18.036;2024-03-25T02:08:32;5.95;;;3.72;;
19207;SDS011;9737;59.466;18.036;2024-03-25T02:10:59;9.07;;;4.05;;
19207;SDS011;9737;59.466;18.036;2024-03-25T02:13:25;6.40;;;3.60;;
19207;SDS011;9737;59.466;18.036;2024-03-25T02:15:52;5.45;;;3.80;;
19207;SDS011;9737;59.466;18.036;2024-03-25T02:18:18;5.38;;;3.78;;
19207;SDS011;9737;59.466;18.036;2024-03-25T02:20:46;4.78;;;3.63;;
19207;SDS011;9737;59.466;18.036;2024-03-25T02:23:13;4.57;;;3.38;;
19207;SDS011;9737;59.466;18.036;2024-03-25T02:25:40;11.05;;;3.92;;
19207;SDS011;9737;59.466;18.036;2024-03-25T02:28:09;7.15;;;3.80;;
19207;SDS011;9737;59.466;18.036;2024-03-25T02:30:36;4.97;;;3.78;;
19207;SDS011;9737;59.466;18.036;2024-03-25T02:33:03;8.93;;;3.60;;
19207;SDS011;9737;59.466;18.036;2024-03-25T02:35:29;4.35;;;3.40;;
19207;SDS011;9737;59.466;18.036;2024-03-25T02:37:56;5.25;;;3.90;;
19207;SDS011;9737;59.466;18.036;2024-03-25T02:40:23;6.18;;;3.50;;
19207;SDS011;9737;59.466;18.036;2024-03-25T02:42:49;6.57;;;4.28;;
19207;SDS011;9737;59.466;18.036;2024-03-25T02:45:17;6.20;;;3.70;;
19207;SDS011;9737;59.466;18.036;2024-03-25T02:47:43;6.45;;;3.72;;
19207;SDS011;9737;59.466;18.036;2024-03-25T02:50:11;6.45;;;3.83;;
19207;SDS011;9737;59.466;18.036;2024-03-25T02:52:37;4.82;;;3.78;;
19207;SDS011;9737;59.466;18.036;2024-03-25T02:55:04;5.20;;;3.67;;
19207;SDS011;9737;59.466;18.036;2024-03-25T02:57:31;5.45;;;3.80;;
19207;SDS011;9737;59.466;18.036;2024-03-25T02:59:57;3.63;;;3.30;;
19207;SDS011;9737;59.466;18.036;2024-03-25T03:02:24;4.78;;;3.65;;
19207;SDS011;9737;59.466;18.036;2024-03-25T03:04:51;4.20;;;3.28;;
19207;SDS011;9737;59.466;18.036;2024-03-25T03:07:17;6.13;;;3.53;;
19207;SDS011;9737;59.466;18.036;2024-03-25T03:09:43;7.07;;;3.65;;
19207;SDS011;9737;59.466;18.036;2024-03-25T03:12:10;6.75;;;3.70;;
19207;SDS011;9737;59.466;18.036;2024-03-25T03:14:36;5.80;;;4.00;;
19207;SDS011;9737;59.466;18.036;2024-03-25T03:17:02;5.63;;;3.75;;
19207;SDS011;9737;59.466;18.036;2024-03-25T03:19:30;5.57;;;3.80;;
19207;SDS011;9737;59.466;18.036;2024-03-25T03:21:57;5.07;;;3.55;;
19207;SDS011;9737;59.466;18.036;2024-03-25T03:24:23;3.80;;;3.35;;
19207;SDS011;9737;59.466;18.036;2024-03-25T03:26:49;5.47;;;3.25;;
19207;SDS011;9737;59.466;18.036;2024-03-25T03:29:16;5.22;;;3.58;;
19207;SDS011;9737;59.466;18.036;2024-03-25T03:31:42;6.15;;;3.63;;
19207;SDS011;9737;59.466;18.036;2024-03-25T03:34:09;5.72;;;3.53;;
19207;SDS011;9737;59.466;18.036;2024-03-25T03:36:36;5.43;;;3.90;;
19207;SDS011;9737;59.466;18.036;2024-03-25T03:39:03;7.05;;;3.45;;
19207;SDS011;9737;59.466;18.036;2024-03-25T03:41:29;5.93;;;3.60;;
19207;SDS011;9737;59.466;18.036;2024-03-25T03:43:55;5.55;;;3.60;;
19207;SDS011;9737;59.466;18.036;2024-03-25T03:46:21;4.20;;;3.40;;
19207;SDS011;9737;59.466;18.036;2024-03-25T03:48:47;5.25;;;3.80;;
19207;SDS011;9737;59.466;18.036;2024-03-25T03:51:14;5.13;;;3.45;;
19207;SDS011;9737;59.466;18.036;2024-03-25T03:53:41;4.32;;;3.63;;
19207;SDS011;9737;59.466;18.036;2024-03-25T03:56:07;4.43;;;3.53;;
19207;SDS011;9737;59.466;18.036;2024-03-25T03:58:34;6.57;;;3.58;;
19207;SDS011;9737;59.466;18.036;2024-03-25T04:01:00;6.30;;;4.00;;
19207;SDS011;9737;59.466;18.036;2024-03-25T04:03:27;5.35;;;3.88;;
19207;SDS011;9737;59.466;18.036;2024-03-25T04:05:53;5.32;;;3.80;;
19207;SDS011;9737;59.466;18.036;2024-03-25T04:08:19;5.15;;;3.33;;
19207;SDS011;9737;59.466;18.036;2024-03-25T04:10:47;6.13;;;3.85;;
19207;SDS011;9737;59.466;18.036;2024-03-25T04:13:14;5.72;;;3.78;;
19207;SDS011;9737;59.466;18.036;2024-03-25T04:15:40;5.00;;;3.63;;
19207;SDS011;9737;59.466;18.036;2024-03-25T04:18:07;5.90;;;3.88;;
19207;SDS011;9737;59.466;18.036;2024-03-25T04:20:36;4.97;;;3.70;;
19207;SDS011;9737;59.466;18.036;2024-03-25T04:23:02;5.50;;;3.33;;
19207;SDS011;9737;59.466;18.036;2024-03-25T04:25:29;6.45;;;3.42;;
19207;SDS011;9737;59.466;18.036;2024-03-25T04:27:57;7.00;;;3.97;;
19207;SDS011;9737;59.466;18.036;2024-03-25T04:30:24;7.15;;;4.00;;
19207;SDS011;9737;59.466;18.036;2024-03-25T04:32:50;8.77;;;4.28;;
19207;SDS011;9737;59.466;18.036;2024-03-25T04:35:17;7.90;;;4.07;;
19207;SDS011;9737;59.466;18.036;2024-03-25T04:37:43;5.43;;;3.67;;
19207;SDS011;9737;59.466;18.036;2024-03-25T04:40:10;7.45;;;4.28;;
19207;SDS011;9737;59.466;18.036;2024-03-25T04:42:37;8.60;;;4.10;;
19207;SDS011;9737;59.466;18.036;2024-03-25T04:45:05;6.50;;;3.88;;
19207;SDS011;9737;59.466;18.036;2024-03-25T04:47:31;9.27;;;3.90;;
19207;SDS011;9737;59.466;18.036;2024-03-25T04:49:58;8.32;;;3.95;;
19207;SDS011;9737;59.466;18.036;2024-03-25T04:52:24;6.13;;;3.85;;
19207;SDS011;9737;59.466;18.036;2024-03-25T04:54:50;5.78;;;3.60;;
19207;SDS011;9737;59.466;18.036;2024-03-25T04:57:17;8.27;;;4.10;;
19207;SDS011;9737;59.466;18.036;2024-03-25T04:59:43;5.43;;;3.33;;
19207;SDS011;9737;59.466;18.036;2024-03-25T05:02:10;5.15;;;3.58;;
19207;SDS011;9737;59.466;18.036;2024-03-25T05:04:37;6.32;;;3.60;;
19207;SDS011;9737;59.466;18.036;2024-03-25T05:07:03;6.63;;;3.53;;
19207;SDS011;9737;59.466;18.036;2024-03-25T05:09:29;5.35;;;3.85;;
19207;SDS011;9737;59.466;18.036;2024-03-25T05:11:55;4.68;;;3.60;;
19207;SDS011;9737;59.466;18.036;2024-03-25T05:14:22;7.13;;;3.80;;
19207;SDS011;9737;59.466;18.036;2024-03-25T05:16:48;5.38;;;3.63;;
19207;SDS011;9737;59.466;18.036;2024-03-25T05:19:15;6.88;;;3.78;;
19207;SDS011;9737;59.466;18.036;2024-03-25T05:21:42;6.43;;;3.72;;
19207;SDS011;9737;59.466;18.036;2024-03-25T05:24:08;5.25;;;3.70;;
19207;SDS011;9737;59.466;18.036;2024-03-25T05:26:34;6.47;;;3.83;;
19207;SDS011;9737;59.466;18.036;2024-03-25T05:29:00;9.82;;;3.83;;
19207;SDS011;9737;59.466;18.036;2024-03-25T05:31:27;5.15;;;3.63;;
19207;SDS011;9737;59.466;18.036;2024-03-25T05:33:53;6.72;;;3.90;;
19207;SDS011;9737;59.466;18.036;2024-03-25T05:36:20;6.15;;;3.85;;
19207;SDS011;9737;59.466;18.036;2024-03-25T05:38:47;5.32;;;3.60;;
19207;SDS011;9737;59.466;18.036;2024-03-25T05:41:13;5.68;;;4.20;;
19207;SDS011;9737;59.466;18.036;2024-03-25T05:43:39;9.02;;;3.90;;
19207;SDS011;9737;59.466;18.036;2024-03-25T05:46:06;5.00;;;3.65;;
19207;SDS011;9737;59.466;18.036;2024-03-25T05:48:32;7.40;;;4.10;;
19207;SDS011;9737;59.466;18.036;2024-03-25T05:50:59;11.57;;;4.50;;
19207;SDS011;9737;59.466;18.036;2024-03-25T05:53:27;8.98;;;4.10;;
19207;SDS011;9737;59.466;18.036;2024-03-25T05:55:54;7.72;;;3.97;;
19207;SDS011;9737;59.466;18.036;2024-03-25T05:58:20;6.93;;;4.20;;
19207;SDS011;9737;59.466;18.036;2024-03-25T06:00:47;6.00;;;3.65;;
19207;SDS011;9737;59.466;18.036;2024-03-25T06:03:14;4.35;;;3.58;;
19207;SDS011;9737;59.466;18.036;2024-03-25T06:05:40;6.55;;;4.22;;
19207;SDS011;9737;59.466;18.036;2024-03-25T06:08:06;5.28;;;3.88;;
19207;SDS011;9737;59.466;18.036;2024-03-25T06:10:38;6.13;;;3.90;;
19207;SDS011;9737;59.466;18.036;2024-03-25T06:13:04;10.05;;;4.25;;
19207;SDS011;9737;59.466;18.036;2024-03-25T06:15:30;6.15;;;3.83;;
19207;SDS011;9737;59.466;18.036;2024-03-25T06:17:57;5.10;;;3.45;;
19207;SDS011;9737;59.466;18.036;2024-03-25T06:20:23;7.15;;;4.65;;
19207;SDS011;9737;59.466;18.036;2024-03-25T06:22:49;10.07;;;4.03;;
19207;SDS011;9737;59.466;18.036;2024-03-25T06:25:16;10.02;;;3.63;;
19207;SDS011;9737;59.466;18.036;2024-03-25T06:27:43;7.68;;;4.05;;
19207;SDS011;9737;59.466;18.036;2024-03-25T06:30:10;7.38;;;3.83;;
19207;SDS011;9737;59.466;18.036;2024-03-25T06:32:37;15.15;;;3.72;;
19207;SDS011;9737;59.466;18.036;2024-03-25T06:35:06;7.90;;;3.80;;
19207;SDS011;9737;59.466;18.036;2024-03-25T06:37:32;8.75;;;3.70;;
19207;SDS011;9737;59.466;18.036;2024-03-25T06:39:58;13.40;;;4.32;;
19207;SDS011;9737;59.466;18.036;2024-03-25T06:42:24;6.82;;;3.72;;
19207;SDS011;9737;59.466;18.036;2024-03-25T06:44:52;4.28;;;3.50;;
19207;SDS011;9737;59.466;18.036;2024-03-25T06:47:18;7.18;;;3.63;;
19207;SDS011;9737;59.466;18.036;2024-03-25T06:49:44;5.95;;;3.83;;
19207;SDS011;9737;59.466;18.036;2024-03-25T06:52:11;22.48;;;3.60;;
19207;SDS011;9737;59.466;18.036;2024-03-25T06:54:39;6.13;;;3.70;;
19207;SDS011;9737;59.466;18.036;2024-03-25T06:57:06;12.00;;;4.00;;
19207;SDS011;9737;59.466;18.036;2024-03-25T06:59:32;9.90;;;3.85;;
19207;SDS011;9737;59.466;18.036;2024-03-25T07:01:59;11.00;;;3.38;;
19207;SDS011;9737;59.466;18.036;2024-03-25T07:04:26;11.07;;;4.10;;
19207;SDS011;9737;59.466;18.036;2024-03-25T07:06:52;11.63;;;3.88;;
19207;SDS011;9737;59.466;18.036;2024-03-25T07:09:18;7.53;;;3.45;;
19207;SDS011;9737;59.466;18.036;2024-03-25T07:11:44;5.20;;;3.40;;
19207;SDS011;9737;59.466;18.036;2024-03-25T07:14:10;5.38;;;3.28;;
19207;SDS011;9737;59.466;18.036;2024-03-25T07:16:37;4.80;;;3.28;;
19207;SDS011;9737;59.466;18.036;2024-03-25T07:19:05;9.30;;;3.65;;
19207;SDS011;9737;59.466;18.036;2024-03-25T07:21:31;4.88;;;3.22;;
19207;SDS011;9737;59.466;18.036;2024-03-25T07:23:57;8.02;;;3.60;;
19207;SDS011;9737;59.466;18.036;2024-03-25T07:26:23;4.90;;;3.20;;
19207;SDS011;9737;59.466;18.036;2024-03-25T07:28:49;8.75;;;3.50;;
19207;SDS011;9737;59.466;18.036;2024-03-25T07:31:16;15.50;;;4.20;;
19207;SDS011;9737;59.466;18.036;2024-03-25T07:33:42;4.57;;;3.53;;
19207;SDS011;9737;59.466;18.036;2024-03-25T07:36:09;8.93;;;2.80;;
19207;SDS011;9737;59.466;18.036;2024-03-25T07:38:36;5.32;;;3.33;;
19207;SDS011;9737;59.466;18.036;2024-03-25T07:41:03;4.82;;;2.97;;
19207;SDS011;9737;59.466;18.036;2024-03-25T07:43:29;8.18;;;3.30;;
19207;SDS011;9737;59.466;18.036;2024-03-25T07:45:55;10.18;;;3.28;;
19207;SDS011;9737;59.466;18.036;2024-03-25T07:48:21;23.25;;;4.43;;
19207;SDS011;9737;59.466;18.036;2024-03-25T07:50:48;8.70;;;3.47;;
19207;SDS011;9737;59.466;18.036;2024-03-25T07:53:15;16.10;;;3.28;;
19207;SDS011;9737;59.466;18.036;2024-03-25T07:55:42;6.15;;;2.90;;
19207;SDS011;9737;59.466;18.036;2024-03-25T07:58:08;14.45;;;3.45;;
19207;SDS011;9737;59.466;18.036;2024-03-25T08:00:34;9.32;;;3.22;;
19207;SDS011;9737;59.466;18.036;2024-03-25T08:03:00;6.75;;;3.75;;
19207;SDS011;9737;59.466;18.036;2024-03-25T08:05:27;5.57;;;3.30;;
19207;SDS011;9737;59.466;18.036;2024-03-25T08:07:55;11.93;;;3.10;;
19207;SDS011;9737;59.466;18.036;2024-03-25T08:10:23;10.77;;;2.60;;
19207;SDS011;9737;59.466;18.036;2024-03-25T08:12:49;3.80;;;2.60;;
19207;SDS011;9737;59.466;18.036;2024-03-25T08:15:15;3.78;;;3.00;;
19207;SDS011;9737;59.466;18.036;2024-03-25T08:17:42;4.35;;;2.80;;
19207;SDS011;9737;59.466;18.036;2024-03-25T08:20:08;13.52;;;2.95;;
19207;SDS011;9737;59.466;18.036;2024-03-25T08:22:35;4.78;;;3.00;;
19207;SDS011;9737;59.466;18.036;2024-03-25T08:25:01;4.70;;;3.00;;
19207;SDS011;9737;59.466;18.036;2024-03-25T08:27:28;34.65;;;3.95;;
19207;SDS011;9737;59.466;18.036;2024-03-25T08:29:55;4.80;;;3.03;;
19207;SDS011;9737;59.466;18.036;2024-03-25T08:32:21;11.40;;;2.72;;
19207;SDS011;9737;59.466;18.036;2024-03-25T08:34:49;5.32;;;2.60;;
19207;SDS011;9737;59.466;18.036;2024-03-25T08:37:15;6.15;;;2.90;;
19207;SDS011;9737;59.466;18.036;2024-03-25T08:39:41;9.85;;;3.05;;
19207;SDS011;9737;59.466;18.036;2024-03-25T08:42:07;7.15;;;3.17;;
19207;SDS011;9737;59.466;18.036;2024-03-25T08:44:35;3.33;;;2.40;;
19207;SDS011;9737;59.466;18.036;2024-03-25T08:47:01;44.28;;;4.78;;
19207;SDS011;9737;59.466;18.036;2024-03-25T08:49:27;5.53;;;2.50;;
19207;SDS011;9737;59.466;18.036;2024-03-25T08:51:53;4.72;;;2.75;;
19207;SDS011;9737;59.466;18.036;2024-03-25T08:54:20;3.38;;;2.67;;
19207;SDS011;9737;59.466;18.036;2024-03-25T08:56:46;6.28;;;2.85;;
19207;SDS011;9737;59.466;18.036;2024-03-25T08:59:12;2.95;;;2.60;;
19207;SDS011;9737;59.466;18.036;2024-03-25T09:01:40;6.40;;;2.88;;
19207;SDS011;9737;59.466;18.036;2024-03-25T09:04:06;8.10;;;2.75;;
19207;SDS011;9737;59.466;18.036;2024-03-25T09:06:32;9.43;;;2.60;;
19207;SDS011;9737;59.466;18.036;2024-03-25T09:08:59;3.83;;;2.40;;
19207;SDS011;9737;59.466;18.036;2024-03-25T09:11:25;8.27;;;2.92;;
19207;SDS011;9737;59.466;18.036;2024-03-25T09:13:51;8.18;;;2.70;;
19207;SDS011;9737;59.466;18.036;2024-03-25T09:16:17;6.00;;;2.55;;
19207;SDS011;9737;59.466;18.036;2024-03-25T09:18:45;4.88;;;3.13;;
19207;SDS011;9737;59.466;18.036;2024-03-25T09:21:11;9.80;;;2.97;;
19207;SDS011;9737;59.466;18.036;2024-03-25T09:23:37;3.92;;;2.30;;
19207;SDS011;9737;59.466;18.036;2024-03-25T09:26:04;6.25;;;2.50;;
19207;SDS011;9737;59.466;18.036;2024-03-25T09:28:30;7.95;;;2.60;;
19207;SDS011;9737;59.466;18.036;2024-03-25T09:30:56;3.65;;;2.47;;
19207;SDS011;9737;59.466;18.036;2024-03-25T09:33:22;6.25;;;2.30;;
19207;SDS011;9737;59.466;18.036;2024-03-25T09:35:54;9.27;;;2.53;;
19207;SDS011;9737;59.466;18.036;2024-03-25T09:38:20;6.28;;;2.58;;
19207;SDS011;9737;59.466;18.036;2024-03-25T09:40:46;5.88;;;2.38;;
19207;SDS011;9737;59.466;18.036;2024-03-25T09:43:13;16.40;;;2.60;;
19207;SDS011;9737;59.466;18.036;2024-03-25T09:45:51;6.22;;;2.25;;
19207;SDS011;9737;59.466;18.036;2024-03-25T09:48:18;3.78;;;2.40;;
19207;SDS011;9737;59.466;18.036;2024-03-25T09:50:47;8.75;;;2.75;;
19207;SDS011;9737;59.466;18.036;2024-03-25T09:53:16;3.85;;;2.17;;
19207;SDS011;9737;59.466;18.036;2024-03-25T09:55:42;4.75;;;2.40;;
19207;SDS011;9737;59.466;18.036;2024-03-25T09:58:08;23.35;;;3.30;;
19207;SDS011;9737;59.466;18.036;2024-03-25T10:00:35;17.33;;;2.95;;
19207;SDS011;9737;59.466;18.036;2024-03-25T10:03:02;12.45;;;2.58;;
19207;SDS011;9737;59.466;18.036;2024-03-25T10:05:28;16.58;;;2.17;;
19207;SDS011;9737;59.466;18.036;2024-03-25T10:07:55;5.80;;;2.03;;
19207;SDS011;9737;59.466;18.036;2024-03-25T10:10:22;4.35;;;2.63;;
19207;SDS011;9737;59.466;18.036;2024-03-25T10:12:49;10.65;;;2.35;;
19207;SDS011;9737;59.466;18.036;2024-03-25T10:15:15;5.55;;;2.28;;
19207;SDS011;9737;59.466;18.036;2024-03-25T10:17:41;6.38;;;2.30;;
19207;SDS011;9737;59.466;18.036;2024-03-25T10:20:13;3.58;;;2.33;;
19207;SDS011;9737;59.466;18.036;2024-03-25T10:22:42;37.17;;;3.53;;
19207;SDS011;9737;59.466;18.036;2024-03-25T10:25:18;14.80;;;3.05;;
19207;SDS011;9737;59.466;18.036;2024-03-25T10:27:53;5.00;;;2.10;;
19207;SDS011;9737;59.466;18.036;2024-03-25T10:30:20;6.35;;;2.42;;
19207;SDS011;9737;59.466;18.036;2024-03-25T10:32:56;12.27;;;2.80;;
19207;SDS011;9737;59.466;18.036;2024-03-25T10:35:24;4.88;;;2.40;;
19207;SDS011;9737;59.466;18.036;2024-03-25T10:37:53;5.05;;;2.40;;
19207;SDS011;9737;59.466;18.036;2024-03-25T10:40:22;4.40;;;2.47;;
19207;SDS011;9737;59.466;18.036;2024-03-25T10:42:54;9.18;;;2.72;;
19207;SDS011;9737;59.466;18.036;2024-03-25T10:45:26;5.30;;;2.38;;
19207;SDS011;9737;59.466;18.036;2024-03-25T10:47:55;3.97;;;2.50;;
19207;SDS011;9737;59.466;18.036;2024-03-25T10:50:24;7.07;;;2.63;;
19207;SDS011;9737;59.466;18.036;2024-03-25T10:52:53;4.10;;;2.25;;
19207;SDS011;9737;59.466;18.036;2024-03-25T10:55:20;5.68;;;2.55;;
19207;SDS011;9737;59.466;18.036;2024-03-25T10:57:48;11.98;;;2.95;;
19207;SDS011;9737;59.466;18.036;2024-03-25T11:00:16;8.18;;;3.00;;
19207;SDS011;9737;59.466;18.036;2024-03-25T11:02:42;3.80;;;2.60;;
19207;SDS011;9737;59.466;18.036;2024-03-25T11:05:09;8.82;;;2.75;;
19207;SDS011;9737;59.466;18.036;2024-03-25T11:07:37;5.72;;;2.80;;
19207;SDS011;9737;59.466;18.036;2024-03-25T11:10:04;5.90;;;2.53;;
19207;SDS011;9737;59.466;18.036;2024-03-25T11:12:32;9.95;;;2.95;;
19207;SDS011;9737;59.466;18.036;2024-03-25T11:15:00;12.43;;;2.80;;
19207;SDS011;9737;59.466;18.036;2024-03-25T11:17:28;10.18;;;2.80;;
19207;SDS011;9737;59.466;18.036;2024-03-25T11:20:05;5.07;;;2.65;;
19207;SDS011;9737;59.466;18.036;2024-03-25T11:22:32;12.55;;;2.70;;
19207;SDS011;9737;59.466;18.036;2024-03-25T11:25:04;17.00;;;3.10;;
19207;SDS011;9737;59.466;18.036;2024-03-25T11:27:32;6.10;;;2.60;;
19207;SDS011;9737;59.466;18.036;2024-03-25T11:29:59;24.17;;;3.72;;
19207;SDS011;9737;59.466;18.036;2024-03-25T11:32:26;9.55;;;2.55;;
19207;SDS011;9737;59.466;18.036;2024-03-25T11:34:54;10.65;;;2.90;;
19207;SDS011;9737;59.466;18.036;2024-03-25T11:37:20;5.72;;;2.58;;
19207;SDS011;9737;59.466;18.036;2024-03-25T11:39:46;3.15;;;2.28;;
19207;SDS011;9737;59.466;18.036;2024-03-25T11:42:13;9.93;;;3.53;;
19207;SDS011;9737;59.466;18.036;2024-03-25T11:44:39;3.85;;;2.40;;
19207;SDS011;9737;59.466;18.036;2024-03-25T11:47:06;6.07;;;2.53;;
19207;SDS011;9737;59.466;18.036;2024-03-25T11:49:33;5.65;;;2.92;;
19207;SDS011;9737;59.466;18.036;2024-03-25T11:52:01;5.72;;;2.83;;
19207;SDS011;9737;59.466;18.036;2024-03-25T11:54:27;6.47;;;3.05;;
19207;SDS011;9737;59.466;18.036;2024-03-25T11:56:54;11.23;;;2.70;;
19207;SDS011;9737;59.466;18.036;2024-03-25T11:59:20;5.65;;;2.38;;
19207;SDS011;9737;59.466;18.036;2024-03-25T12:01:46;3.20;;;2.50;;
19207;SDS011;9737;59.466;18.036;2024-03-25T12:04:16;6.80;;;2.50;;
19207;SDS011;9737;59.466;18.036;2024-03-25T12:06:43;4.32;;;2.40;;
19207;SDS011;9737;59.466;18.036;2024-03-25T12:09:12;10.75;;;2.53;;
19207;SDS011;9737;59.466;18.036;2024-03-25T12:11:38;7.60;;;2.58;;
19207;SDS011;9737;59.466;18.036;2024-03-25T12:14:04;4.90;;;2.60;;
19207;SDS011;9737;59.466;18.036;2024-03-25T12:16:30;5.10;;;2.40;;
19207;SDS011;9737;59.466;18.036;2024-03-25T12:18:57;6.60;;;2.47;;
19207;SDS011;9737;59.466;18.036;2024-03-25T12:21:23;41.35;;;4.10;;
19207;SDS011;9737;59.466;18.036;2024-03-25T12:23:49;3.85;;;2.40;;
19207;SDS011;9737;59.466;18.036;2024-03-25T12:26:17;9.52;;;2.60;;
19207;SDS011;9737;59.466;18.036;2024-03-25T12:28:43;12.43;;;3.08;;
19207;SDS011;9737;59.466;18.036;2024-03-25T12:31:10;3.70;;;2.55;;
19207;SDS011;9737;59.466;18.036;2024-03-25T12:33:40;16.27;;;2.83;;
19207;SDS011;9737;59.466;18.036;2024-03-25T12:36:06;4.30;;;3.08;;
19207;SDS011;9737;59.466;18.036;2024-03-25T12:38:32;26.70;;;3.70;;
19207;SDS011;9737;59.466;18.036;2024-03-25T12:41:03;16.65;;;3.30;;
19207;SDS011;9737;59.466;18.036;2024-03-25T12:43:32;11.30;;;2.90;;
19207;SDS011;9737;59.466;18.036;2024-03-25T12:46:00;6.00;;;2.40;;
19207;SDS011;9737;59.466;18.036;2024-03-25T12:48:26;6.65;;;2.13;;
19207;SDS011;9737;59.466;18.036;2024-03-25T12:50:52;4.20;;;2.20;;
19207;SDS011;9737;59.466;18.036;2024-03-25T12:53:19;4.47;;;2.00;;
19207;SDS011;9737;59.466;18.036;2024-03-25T12:55:45;3.10;;;1.92;;
19207;SDS011;9737;59.466;18.036;2024-03-25T12:58:12;4.20;;;1.92;;
19207;SDS011;9737;59.466;18.036;2024-03-25T13:00:40;25.70;;;2.72;;
19207;SDS011;9737;59.466;18.036;2024-03-25T13:03:07;9.13;;;1.90;;
19207;SDS011;9737;59.466;18.036;2024-03-25T13:05:35;4.32;;;1.70;;
19207;SDS011;9737;59.466;18.036;2024-03-25T13:08:01;7.05;;;2.20;;
19207;SDS011;9737;59.466;18.036;2024-03-25T13:10:28;4.15;;;2.10;;
19207;SDS011;9737;59.466;18.036;2024-03-25T13:12:55;20.35;;;3.33;;
19207;SDS011;9737;59.466;18.036;2024-03-25T13:15:22;8.07;;;2.22;;
19207;SDS011;9737;59.466;18.036;2024-03-25T13:17:50;8.27;;;2.05;;
19207;SDS011;9737;59.466;18.036;2024-03-25T13:20:16;4.97;;;2.22;;
19207;SDS011;9737;59.466;18.036;2024-03-25T13:22:42;4.70;;;2.00;;
19207;SDS011;9737;59.466;18.036;2024-03-25T13:25:10;4.00;;;1.88;;
19207;SDS011;9737;59.466;18.036;2024-03-25T13:27:36;11.07;;;2.15;;
19207;SDS011;9737;59.466;18.036;2024-03-25T13:30:03;3.50;;;1.70;;
19207;SDS011;9737;59.466;18.036;2024-03-25T13:32:30;4.10;;;2.05;;
19207;SDS011;9737;59.466;18.036;2024-03-25T13:34:58;8.93;;;1.98;;
19207;SDS011;9737;59.466;18.036;2024-03-25T13:37:24;5.32;;;1.95;;
19207;SDS011;9737;59.466;18.036;2024-03-25T13:39:50;3.03;;;1.90;;
19207;SDS011;9737;59.466;18.036;2024-03-25T13:42:16;54.22;;;3.55;;
19207;SDS011;9737;59.466;18.036;2024-03-25T13:44:42;4.95;;;1.77;;
19207;SDS011;9737;59.466;18.036;2024-03-25T13:47:09;7.28;;;2.40;;
19207;SDS011;9737;59.466;18.036;2024-03-25T13:49:35;17.70;;;2.95;;
19207;SDS011;9737;59.466;18.036;2024-03-25T13:52:03;46.58;;;3.90;;
19207;SDS011;9737;59.466;18.036;2024-03-25T13:54:29;69.90;;;5.10;;
19207;SDS011;9737;59.466;18.036;2024-03-25T13:56:56;7.22;;;2.70;;
19207;SDS011;9737;59.466;18.036;2024-03-25T13:59:22;16.75;;;2.60;;
19207;SDS011;9737;59.466;18.036;2024-03-25T14:01:48;7.40;;;2.50;;
19207;SDS011;9737;59.466;18.036;2024-03-25T14:04:14;8.32;;;2.13;;
19207;SDS011;9737;59.466;18.036;2024-03-25T14:06:41;7.70;;;2.03;;
19207;SDS011;9737;59.466;18.036;2024-03-25T14:09:08;3.20;;;2.13;;
19207;SDS011;9737;59.466;18.036;2024-03-25T14:11:34;4.15;;;2.38;;
19207;SDS011;9737;59.466;18.036;2024-03-25T14:14:01;5.90;;;2.28;;
19207;SDS011;9737;59.466;18.036;2024-03-25T14:16:27;7.78;;;2.30;;
19207;SDS011;9737;59.466;18.036;2024-03-25T14:18:54;3.97;;;2.40;;
19207;SDS011;9737;59.466;18.036;2024-03-25T14:21:20;7.63;;;2.40;;
19207;SDS011;9737;59.466;18.036;2024-03-25T14:23:47;7.20;;;3.17;;
19207;SDS011;9737;59.466;18.036;2024-03-25T14:26:14;22.80;;;3.22;;
19207;SDS011;9737;59.466;18.036;2024-03-25T14:28:41;21.98;;;2.80;;
19207;SDS011;9737;59.466;18.036;2024-03-25T14:31:07;7.53;;;2.63;;
19207;SDS011;9737;59.466;18.036;2024-03-25T14:33:33;3.63;;;2.40;;
19207;SDS011;9737;59.466;18.036;2024-03-25T14:36:00;8.65;;;2.40;;
19207;SDS011;9737;59.466;18.036;2024-03-25T14:38:26;4.30;;;2.60;;
19207;SDS011;9737;59.466;18.036;2024-03-25T14:40:52;17.08;;;3.00;;
19207;SDS011;9737;59.466;18.036;2024-03-25T14:43:20;25.55;;;3.13;;